Time;durP1;ratioP1;P1;durP2;ratioP2;P2;SDS_P1;SDS_P2;PMS_P1;PMS_P2;Temp;Humidity;BMP_temperature;BMP_pressure;BME280_temperature;BME280_humidity;BME280_pressure;Samples;Min_cycle;Max_cycle;Signal;HPM_P1;HPM_P2
2023/05/14 00:01:27;;;;;;;;;;;19.70;89.50;;;;;;5060624;28;20235;-83
2023/05/14 00:03:52;;;;;;;;;;;19.60;89.40;;;;;;5079249;28;19966;-83
2023/05/14 00:06:18;;;;;;;;;;;19.70;89.50;;;;;;5061434;28;19916;-83
2023/05/14 00:08:43;;;;;;;;;;;19.60;89.50;;;;;;5060517;28;20194;-83
2023/05/14 00:11:09;;;;;;;;;;;19.60;89.50;;;;;;5078515;28;20308;-83
2023/05/14 00:13:35;;;;;;;;;;;19.60;89.50;;;;;;5060566;28;19920;-83
2023/05/14 00:16:00;;;;;;;;;;;19.60;89.60;;;;;;5077515;28;19919;-83
2023/05/14 00:18:26;;;;;;;;;;;19.60;89.60;;;;;;5060244;28;19939;-83
2023/05/14 00:20:53;;;;;;;;;;;19.50;89.60;;;;;;5059627;28;19919;-83
2023/05/14 00:23:20;;;;;;;;;;;19.50;89.50;;;;;;5075985;28;19966;-83
2023/05/14 00:25:45;;;;;;;;;;;19.50;89.60;;;;;;5077080;28;20186;-83
2023/05/14 00:28:11;;;;;;;;;;;19.50;89.50;;;;;;5058945;28;19912;-83
2023/05/14 00:30:36;;;;;;;;;;;19.50;89.60;;;;;;5059632;28;19920;-83
2023/05/14 00:33:12;;;;;;;;;;;19.50;89.50;;;;;;5077767;28;19909;-83
2023/05/14 00:35:55;;;;;;;;;;;19.50;89.60;;;;;;5077557;28;19916;-83
2023/05/14 00:38:20;;;;;;;;;;;19.50;89.60;;;;;;5056295;28;19919;-83
2023/05/14 00:40:50;;;;;;;;;;;19.50;89.60;;;;;;5059100;28;20141;-83
2023/05/14 00:43:16;;;;;;;;;;;19.50;89.60;;;;;;5060514;28;19931;-83
2023/05/14 00:45:42;;;;;;;;;;;19.40;89.50;;;;;;5058636;28;20316;-83
2023/05/14 00:48:08;;;;;;;;;;;19.40;89.60;;;;;;5058267;28;20002;-83
2023/05/14 00:50:39;;;;;;;;;;;19.40;89.60;;;;;;5057396;28;19908;-83
2023/05/14 00:53:09;;;;;;;;;;;19.40;89.60;;;;;;5057715;28;20006;-83
2023/05/14 00:55:39;;;;;;;;;;;19.40;89.60;;;;;;5056005;28;19925;-83
2023/05/14 00:58:27;;;;;;;;;;;19.40;89.60;;;;;;5057872;28;19909;-84
2023/05/14 01:00:52;;;;;;;;;;;19.40;89.60;;;;;;5075193;28;20262;-83
2023/05/14 01:03:18;;;;;;;;;;;19.40;89.60;;;;;;5057626;28;20143;-83
2023/05/14 01:05:53;;;;;;;;;;;19.30;89.60;;;;;;5058441;28;19913;-83
2023/05/14 01:08:44;;;;;;;;;;;19.30;89.60;;;;;;5059222;28;19935;-83
2023/05/14 01:11:16;;;;;;;;;;;19.30;89.50;;;;;;5076386;28;19920;-83
2023/05/14 01:13:46;;;;;;;;;;;19.30;89.60;;;;;;5059227;28;19916;-83
2023/05/14 01:16:13;;;;;;;;;;;19.30;89.60;;;;;;5076969;28;19919;-83
2023/05/14 01:18:39;;;;;;;;;;;19.30;89.60;;;;;;5059940;28;19909;-83
2023/05/14 01:21:31;;;;;;;;;;;19.30;89.60;;;;;;5077353;28;19909;-83
2023/05/14 01:24:09;;;;;;;;;;;19.30;89.60;;;;;;5060491;28;20171;-83
2023/05/14 01:26:51;;;;;;;;;;;19.20;89.50;;;;;;5048538;28;20267;-82
2023/05/14 01:29:20;;;;;;;;;;;19.20;89.60;;;;;;5059355;28;20186;-83
2023/05/14 01:31:47;;;;;;;;;;;19.20;89.60;;;;;;5076335;28;19908;-83
2023/05/14 01:34:14;;;;;;;;;;;19.20;89.60;;;;;;5059737;28;20228;-83
2023/05/14 01:36:40;;;;;;;;;;;19.20;89.50;;;;;;5054862;28;20267;-83
2023/05/14 01:39:15;;;;;;;;;;;19.20;89.50;;;;;;5072197;28;19908;-83
2023/05/14 01:41:41;;;;;;;;;;;19.20;89.50;;;;;;5055975;28;20131;-82
2023/05/14 01:44:18;;;;;;;;;;;19.10;89.50;;;;;;5072367;28;19917;-82
2023/05/14 01:46:50;;;;;;;;;;;19.10;89.40;;;;;;5056768;28;19996;-83
2023/05/14 01:49:17;;;;;;;;;;;19.10;89.40;;;;;;5073043;28;19909;-83
2023/05/14 01:51:42;;;;;;;;;;;19.10;89.40;;;;;;5056018;28;19974;-83
2023/05/14 01:54:08;;;;;;;;;;;19.10;89.40;;;;;;5071421;28;19921;-83
2023/05/14 01:56:34;;;;;;;;;;;19.10;89.40;;;;;;5069211;28;19916;-83
2023/05/14 01:58:59;;;;;;;;;;;19.10;89.40;;;;;;5053491;28;19913;-83
2023/05/14 02:01:25;;;;;;;;;;;19.00;89.30;;;;;;5052377;28;20038;-83
2023/05/14 02:03:51;;;;;;;;;;;19.00;89.30;;;;;;5057387;28;19909;-83
2023/05/14 02:06:16;;;;;;;;;;;19.00;89.30;;;;;;5057872;28;19966;-83
2023/05/14 02:08:41;;;;;;;;;;;19.00;89.30;;;;;;5068564;28;19948;-83
2023/05/14 02:11:07;;;;;;;;;;;19.00;89.30;;;;;;5068206;28;20184;-83
2023/05/14 02:13:33;;;;;;;;;;;19.00;89.30;;;;;;5069511;28;19943;-83
2023/05/14 02:15:58;;;;;;;;;;;19.00;89.30;;;;;;5068902;28;20244;-83
2023/05/14 02:18:24;;;;;;;;;;;19.00;89.30;;;;;;5053436;28;19948;-83
2023/05/14 02:20:49;;;;;;;;;;;19.00;89.30;;;;;;5053928;28;19978;-83
2023/05/14 02:23:15;;;;;;;;;;;18.90;89.20;;;;;;5070184;28;19909;-83
2023/05/14 02:25:41;;;;;;;;;;;18.90;89.20;;;;;;5055830;28;19995;-83
2023/05/14 02:28:06;;;;;;;;;;;18.90;89.20;;;;;;5072167;28;19909;-83
2023/05/14 02:30:32;;;;;;;;;;;18.90;89.20;;;;;;5071407;28;19909;-83
2023/05/14 02:32:58;;;;;;;;;;;18.90;89.20;;;;;;5054599;28;19909;-83
2023/05/14 02:35:23;;;;;;;;;;;18.90;89.10;;;;;;5071168;28;19992;-83
2023/05/14 02:37:49;;;;;;;;;;;18.80;89.10;;;;;;5070927;28;20052;-83
2023/05/14 02:40:14;;;;;;;;;;;18.80;89.10;;;;;;5070946;28;20186;-83
2023/05/14 02:42:40;;;;;;;;;;;18.80;89.10;;;;;;5070750;28;20276;-83
2023/05/14 02:45:06;;;;;;;;;;;18.80;89.10;;;;;;5054731;28;20088;-83
2023/05/14 02:47:31;;;;;;;;;;;18.80;89.00;;;;;;5072546;28;19909;-83
2023/05/14 02:49:57;;;;;;;;;;;18.80;89.00;;;;;;5075448;28;19917;-83
2023/05/14 02:52:22;;;;;;;;;;;18.80;89.00;;;;;;5058877;28;20037;-83
2023/05/14 02:54:48;;;;;;;;;;;18.80;89.00;;;;;;5073993;28;20274;-83
2023/05/14 02:57:14;;;;;;;;;;;18.80;89.00;;;;;;5059482;28;19970;-83
2023/05/14 02:59:39;;;;;;;;;;;18.70;88.90;;;;;;5075602;28;19909;-83
2023/05/14 03:02:05;;;;;;;;;;;18.80;89.00;;;;;;5058846;28;20211;-83
2023/05/14 03:04:30;;;;;;;;;;;18.70;88.90;;;;;;5076288;28;19956;-83
2023/05/14 03:06:56;;;;;;;;;;;18.70;88.90;;;;;;5076273;28;19941;-83
2023/05/14 03:09:22;;;;;;;;;;;18.70;88.90;;;;;;5060048;28;20002;-83
2023/05/14 03:11:47;;;;;;;;;;;18.70;88.90;;;;;;5074948;28;19964;-83
2023/05/14 03:14:13;;;;;;;;;;;18.70;88.80;;;;;;5075699;28;19923;-83
2023/05/14 03:16:40;;;;;;;;;;;18.70;88.90;;;;;;5075589;28;19917;-82
2023/05/14 03:19:06;;;;;;;;;;;18.70;88.80;;;;;;5076008;28;20094;-83
2023/05/14 03:21:32;;;;;;;;;;;18.60;88.80;;;;;;5075400;28;19990;-83
2023/05/14 03:23:57;;;;;;;;;;;18.60;88.90;;;;;;5074622;28;19908;-83
2023/05/14 03:26:25;;;;;;;;;;;18.60;88.80;;;;;;5059064;28;19967;-83
2023/05/14 03:28:50;;;;;;;;;;;18.60;89.40;;;;;;5072668;28;19908;-83
2023/05/14 03:31:16;;;;;;;;;;;18.60;88.80;;;;;;5074532;28;19909;-83
2023/05/14 03:33:41;;;;;;;;;;;18.60;88.80;;;;;;5074425;28;19912;-83
2023/05/14 03:36:07;;;;;;;;;;;18.60;88.70;;;;;;5073642;28;19956;-83
2023/05/14 03:38:33;;;;;;;;;;;18.60;88.80;;;;;;5073510;28;19944;-83
2023/05/14 03:40:58;;;;;;;;;;;18.60;88.70;;;;;;5073842;28;19909;-83
2023/05/14 03:43:24;;;;;;;;;;;18.60;88.80;;;;;;5057086;28;19962;-83
2023/05/14 03:45:51;;;;;;;;;;;18.50;88.70;;;;;;5057625;28;20282;-83
2023/05/14 03:48:17;;;;;;;;;;;18.50;88.60;;;;;;5057550;28;19909;-83
2023/05/14 03:50:42;;;;;;;;;;;18.50;88.60;;;;;;5073545;28;19987;-83
2023/05/14 03:53:08;;;;;;;;;;;18.50;88.60;;;;;;5057266;28;20243;-83
2023/05/14 03:55:35;;;;;;;;;;;18.50;88.60;;;;;;5055658;28;19912;-83
2023/05/14 03:58:01;;;;;;;;;;;18.50;88.60;;;;;;5072366;28;20042;-83
2023/05/14 04:00:27;;;;;;;;;;;18.50;88.50;;;;;;5072772;28;19963;-83
2023/05/14 04:02:53;;;;;;;;;;;18.50;88.50;;;;;;5073158;28;19939;-82
2023/05/14 04:05:18;;;;;;;;;;;18.50;88.50;;;;;;5073397;28;20275;-83
2023/05/14 04:07:45;;;;;;;;;;;18.50;88.40;;;;;;5057742;28;19909;-83
2023/05/14 04:10:10;;;;;;;;;;;18.50;88.30;;;;;;5074950;28;20297;-83
2023/05/14 04:12:37;;;;;;;;;;;18.50;88.30;;;;;;5074173;28;19940;-82
2023/05/14 04:15:03;;;;;;;;;;;18.50;88.30;;;;;;5071859;28;19978;-83
2023/05/14 04:17:28;;;;;;;;;;;18.50;88.20;;;;;;5072007;28;19909;-83
2023/05/14 04:19:54;;;;;;;;;;;18.50;88.20;;;;;;5071771;28;19915;-83
2023/05/14 04:22:20;;;;;;;;;;;18.50;88.10;;;;;;5071836;28;19909;-83
2023/05/14 04:24:46;;;;;;;;;;;18.50;88.00;;;;;;5077421;28;19909;-83
2023/05/14 04:27:21;;;;;;;;;;;18.50;87.30;;;;;;5055663;28;19912;-83
2023/05/14 04:29:47;;;;;;;;;;;18.50;87.80;;;;;;5072080;28;19909;-82
2023/05/14 04:32:13;;;;;;;;;;;18.50;87.70;;;;;;5057005;28;20204;-82
2023/05/14 04:34:39;;;;;;;;;;;18.50;87.60;;;;;;5072950;28;19924;-83
2023/05/14 04:37:04;;;;;;;;;;;18.50;87.40;;;;;;5059976;28;19920;-82
2023/05/14 04:39:30;;;;;;;;;;;18.50;87.30;;;;;;5057852;28;19991;-82
2023/05/14 04:41:55;;;;;;;;;;;18.60;87.30;;;;;;5057856;28;20041;-83
2023/05/14 04:44:21;;;;;;;;;;;18.60;87.10;;;;;;5057210;28;19919;-83
2023/05/14 04:46:46;;;;;;;;;;;18.60;86.90;;;;;;5075550;28;20002;-83
2023/05/14 04:49:12;;;;;;;;;;;18.60;86.90;;;;;;5058500;28;20175;-83
2023/05/14 04:51:37;;;;;;;;;;;18.60;86.60;;;;;;5058180;28;19916;-83
2023/05/14 04:54:03;;;;;;;;;;;18.60;86.40;;;;;;5057502;28;19912;-83
2023/05/14 04:56:29;;;;;;;;;;;18.70;86.30;;;;;;5058397;28;19909;-83
2023/05/14 04:58:54;;;;;;;;;;;18.70;86.10;;;;;;5076267;28;19917;-83
2023/05/14 05:01:22;;;;;;;;;;;18.70;85.90;;;;;;5059053;28;20313;-83
2023/05/14 05:03:51;;;;;;;;;;;18.70;85.70;;;;;;5058453;28;19919;-84
2023/05/14 05:06:16;;;;;;;;;;;18.80;85.40;;;;;;5058840;28;19908;-83
2023/05/14 05:08:42;;;;;;;;;;;18.80;85.30;;;;;;5057457;28;19919;-83
2023/05/14 05:11:08;;;;;;;;;;;18.80;85.40;;;;;;5073923;28;19915;-83
2023/05/14 05:13:33;;;;;;;;;;;18.80;85.30;;;;;;5057651;28;19912;-83
2023/05/14 05:15:59;;;;;;;;;;;18.90;85.00;;;;;;5058276;28;19995;-83
2023/05/14 05:18:24;;;;;;;;;;;18.90;84.60;;;;;;5057255;28;20070;-83
2023/05/14 05:20:53;;;;;;;;;;;19.00;84.30;;;;;;5057782;28;19909;-83
2023/05/14 05:23:19;;;;;;;;;;;19.00;83.90;;;;;;5057409;28;19909;-83
2023/05/14 05:25:44;;;;;;;;;;;19.10;83.50;;;;;;5058118;28;19908;-83
2023/05/14 05:28:10;;;;;;;;;;;19.20;83.10;;;;;;5057775;28;19999;-84
2023/05/14 05:30:35;;;;;;;;;;;19.20;82.60;;;;;;5058198;28;20034;-84
2023/05/14 05:33:01;;;;;;;;;;;19.30;82.10;;;;;;5057894;28;19916;-84
2023/05/14 05:35:27;;;;;;;;;;;19.40;81.60;;;;;;5054243;28;19917;-84
2023/05/14 05:37:52;;;;;;;;;;;19.40;81.00;;;;;;5053400;28;20015;-84
2023/05/14 05:40:18;;;;;;;;;;;19.40;80.80;;;;;;5053446;28;19920;-83
2023/05/14 05:42:44;;;;;;;;;;;19.40;80.50;;;;;;5069751;28;20243;-83
2023/05/14 05:45:10;;;;;;;;;;;19.40;80.20;;;;;;5052977;28;19909;-83
2023/05/14 05:47:35;;;;;;;;;;;19.40;80.00;;;;;;5073427;28;19919;-83
2023/05/14 05:50:01;;;;;;;;;;;19.40;79.90;;;;;;5074625;28;19909;-83
2023/05/14 05:52:27;;;;;;;;;;;19.50;79.90;;;;;;5070028;28;20202;-83
2023/05/14 05:54:53;;;;;;;;;;;19.50;79.40;;;;;;5069838;28;19946;-83
2023/05/14 05:57:18;;;;;;;;;;;19.60;79.00;;;;;;5070340;28;19909;-83
2023/05/14 05:59:44;;;;;;;;;;;19.70;78.40;;;;;;5070416;28;19920;-86
2023/05/14 06:02:10;;;;;;;;;;;19.80;77.80;;;;;;5070384;28;19909;-83
2023/05/14 06:04:36;;;;;;;;;;;20.00;77.20;;;;;;5069743;28;19971;-83
2023/05/14 06:07:01;;;;;;;;;;;20.00;76.70;;;;;;5070682;28;20282;-83
2023/05/14 06:09:27;;;;;;;;;;;20.10;76.00;;;;;;5052302;28;19908;-83
2023/05/14 06:11:53;;;;;;;;;;;20.20;75.50;;;;;;5052832;28;20062;-84
2023/05/14 06:14:18;;;;;;;;;;;20.30;74.40;;;;;;5055048;28;20007;-83
2023/05/14 06:16:44;;;;;;;;;;;20.40;74.30;;;;;;5051330;28;19909;-83
2023/05/14 06:19:09;;;;;;;;;;;20.50;73.80;;;;;;5069945;28;19909;-83
2023/05/14 06:21:35;;;;;;;;;;;20.60;73.00;;;;;;5069950;28;20023;-83
2023/05/14 06:24:01;;;;;;;;;;;20.70;72.30;;;;;;5054366;28;19995;-83
2023/05/14 06:26:27;;;;;;;;;;;20.80;71.80;;;;;;5069484;28;20283;-83
2023/05/14 06:28:52;;;;;;;;;;;20.90;71.10;;;;;;5070206;28;20353;-83
2023/05/14 06:31:18;;;;;;;;;;;21.00;70.50;;;;;;5053317;28;20019;-83
2023/05/14 06:33:44;;;;;;;;;;;21.10;69.90;;;;;;5056846;28;19996;-83
2023/05/14 06:36:09;;;;;;;;;;;21.30;69.80;;;;;;5034009;28;20228;-83
2023/05/14 06:38:35;;;;;;;;;;;21.40;69.10;;;;;;5034472;28;19970;-83
2023/05/14 06:41:02;;;;;;;;;;;21.50;68.50;;;;;;5036699;28;20259;-83
2023/05/14 06:43:27;;;;;;;;;;;21.80;67.70;;;;;;5033328;28;19909;-83
2023/05/14 06:45:53;;;;;;;;;;;22.00;66.90;;;;;;5033735;28;19909;-83
2023/05/14 06:48:19;;;;;;;;;;;22.30;65.90;;;;;;5032355;28;20358;-83
2023/05/14 06:50:48;;;;;;;;;;;22.60;64.80;;;;;;5031353;28;20171;-83
2023/05/14 06:53:14;;;;;;;;;;;22.90;63.50;;;;;;5031794;28;19913;-83
2023/05/14 06:55:40;;;;;;;;;;;23.20;62.30;;;;;;5032234;28;20180;-83
2023/05/14 06:58:05;;;;;;;;;;;23.50;61.00;;;;;;5033458;28;19963;-83
2023/05/14 07:00:31;;;;;;;;;;;23.90;59.80;;;;;;5033285;28;20167;-83
2023/05/14 07:02:57;;;;;;;;;;;24.30;59.00;;;;;;5031683;28;20011;-83
2023/05/14 07:05:23;;;;;;;;;;;24.60;58.20;;;;;;5031334;28;19952;-83
2023/05/14 07:07:48;;;;;;;;;;;24.90;57.70;;;;;;5030773;28;20281;-83
2023/05/14 07:10:14;;;;;;;;;;;25.20;57.10;;;;;;5030644;28;20067;-83
2023/05/14 07:12:40;;;;;;;;;;;25.40;56.50;;;;;;5031132;28;19963;-82
2023/05/14 07:15:06;;;;;;;;;;;25.60;56.10;;;;;;5031441;28;19972;-82
2023/05/14 07:17:31;;;;;;;;;;;25.90;55.70;;;;;;5030555;28;20169;-83
2023/05/14 07:19:57;;;;;;;;;;;26.10;56.00;;;;;;5032357;28;20008;-82
2023/05/14 07:22:23;;;;;;;;;;;26.30;56.30;;;;;;5030646;28;19916;-82
2023/05/14 07:24:49;;;;;;;;;;;26.50;56.30;;;;;;5031265;28;19978;-83
2023/05/14 07:27:15;;;;;;;;;;;26.70;56.10;;;;;;5030839;28;19910;-83
2023/05/14 07:29:42;;;;;;;;;;;26.90;55.60;;;;;;5040215;28;19924;-82
2023/05/14 07:32:07;;;;;;;;;;;27.00;55.40;;;;;;5062890;28;19909;-82
2023/05/14 07:34:33;;;;;;;;;;;27.20;54.90;;;;;;5074060;28;19935;-83
2023/05/14 07:36:58;;;;;;;;;;;27.40;54.50;;;;;;5093921;28;20226;-83
2023/05/14 07:39:24;;;;;;;;;;;27.60;54.00;;;;;;5077049;28;19919;-83
2023/05/14 07:41:50;;;;;;;;;;;27.70;53.60;;;;;;5066417;28;20031;-83
2023/05/14 07:44:15;;;;;;;;;;;27.90;53.10;;;;;;5075978;28;19919;-83
2023/05/14 07:46:41;;;;;;;;;;;28.10;52.80;;;;;;5073820;28;19920;-83
2023/05/14 07:49:07;;;;;;;;;;;28.30;52.40;;;;;;5057195;28;19916;-83
2023/05/14 07:51:33;;;;;;;;;;;28.40;52.10;;;;;;5056234;28;19916;-83
2023/05/14 07:53:58;;;;;;;;;;;28.60;51.60;;;;;;5055544;28;20007;-83
2023/05/14 07:56:24;;;;;;;;;;;28.80;51.60;;;;;;5074520;28;19908;-83
2023/05/14 07:58:50;;;;;;;;;;;29.00;51.50;;;;;;5056643;28;20249;-83
2023/05/14 08:01:16;;;;;;;;;;;29.10;51.10;;;;;;5055047;28;19966;-83
2023/05/14 08:03:41;;;;;;;;;;;29.30;50.80;;;;;;5055759;28;19908;-83
2023/05/14 08:06:07;;;;;;;;;;;29.40;50.60;;;;;;5074862;28;19919;-84
2023/05/14 08:08:33;;;;;;;;;;;29.60;50.30;;;;;;5056443;28;19908;-83
2023/05/14 08:10:59;;;;;;;;;;;29.80;50.20;;;;;;5058518;28;19956;-83
2023/05/14 08:13:24;;;;;;;;;;;29.90;49.90;;;;;;5057583;28;19917;-83
2023/05/14 08:15:50;;;;;;;;;;;30.10;49.90;;;;;;5057357;28;20408;-83
2023/05/14 08:18:16;;;;;;;;;;;30.10;49.60;;;;;;5056815;28;19924;-84
2023/05/14 08:20:42;;;;;;;;;;;30.30;49.50;;;;;;5056336;28;19908;-84
2023/05/14 08:23:08;;;;;;;;;;;30.40;49.30;;;;;;5053597;28;20005;-83
2023/05/14 08:25:33;;;;;;;;;;;30.50;49.00;;;;;;5055229;28;19918;-83
2023/05/14 08:28:00;;;;;;;;;;;30.60;49.00;;;;;;5054841;28;19908;-84
2023/05/14 08:30:26;;;;;;;;;;;30.70;48.80;;;;;;5054551;28;20270;-84
2023/05/14 08:32:51;;;;;;;;;;;30.70;48.70;;;;;;5050084;28;19923;-84
2023/05/14 08:35:20;;;;;;;;;;;30.80;48.50;;;;;;5053720;28;19925;-83
2023/05/14 08:37:46;;;;;;;;;;;31.00;48.40;;;;;;5072485;28;20282;-83
2023/05/14 08:40:12;;;;;;;;;;;31.10;48.20;;;;;;5038792;28;19918;-84
2023/05/14 08:42:42;;;;;;;;;;;31.20;48.10;;;;;;5056514;28;19908;-83
2023/05/14 08:45:18;;;;;;;;;;;31.40;47.80;;;;;;5054461;28;20027;-84
2023/05/14 08:47:50;;;;;;;;;;;31.60;47.70;;;;;;5052512;28;19935;-84
2023/05/14 08:50:16;;;;;;;;;;;31.70;47.50;;;;;;5053083;28;19915;-83
2023/05/14 08:52:42;;;;;;;;;;;31.90;47.30;;;;;;5072758;28;19943;-84
2023/05/14 08:55:08;;;;;;;;;;;31.90;47.10;;;;;;5070473;28;19982;-84
2023/05/14 08:57:34;;;;;;;;;;;32.00;47.00;;;;;;5071330;28;19908;-84
2023/05/14 09:00:06;;;;;;;;;;;32.00;46.90;;;;;;5070344;28;19908;-83
2023/05/14 09:02:32;;;;;;;;;;;32.20;46.80;;;;;;5055307;28;19916;-83
2023/05/14 09:04:59;;;;;;;;;;;32.30;46.50;;;;;;5074487;28;19969;-84
2023/05/14 09:07:25;;;;;;;;;;;32.40;46.50;;;;;;5052903;28;19920;-84
2023/05/14 09:09:51;;;;;;;;;;;32.50;46.30;;;;;;5053344;28;20084;-84
2023/05/14 09:12:17;;;;;;;;;;;32.50;46.30;;;;;;5063336;28;19920;-84
2023/05/14 09:14:43;;;;;;;;;;;32.60;46.10;;;;;;5052002;28;20220;-84
2023/05/14 09:17:32;;;;;;;;;;;32.60;45.90;;;;;;5070789;28;19923;-84
2023/05/14 09:19:58;;;;;;;;;;;32.70;46.30;;;;;;5072483;28;19955;-84
2023/05/14 09:22:23;;;;;;;;;;;32.70;45.70;;;;;;5093130;28;19970;-84
2023/05/14 09:25:01;;;;;;;;;;;32.80;45.60;;;;;;5079991;28;19958;-84
2023/05/14 09:27:28;;;;;;;;;;;32.90;45.50;;;;;;5054865;28;19921;-82
2023/05/14 09:29:55;;;;;;;;;;;32.90;45.50;;;;;;5053579;28;19977;-82
2023/05/14 09:32:33;;;;;;;;;;;32.90;45.40;;;;;;5050770;28;20419;-82
2023/05/14 09:35:12;;;;;;;;;;;32.90;45.40;;;;;;5051865;28;19917;-81
2023/05/14 09:37:46;;;;;;;;;;;32.90;45.40;;;;;;5048123;28;19917;-82
2023/05/14 09:40:12;;;;;;;;;;;32.70;45.40;;;;;;5047587;28;19948;-82
2023/05/14 09:42:38;;;;;;;;;;;32.50;45.40;;;;;;5063351;28;19924;-82
2023/05/14 09:45:05;;;;;;;;;;;32.30;45.60;;;;;;5065187;28;19905;-82
2023/05/14 09:47:31;;;;;;;;;;;32.10;45.80;;;;;;5062039;28;19909;-82
2023/05/14 09:49:57;;;;;;;;;;;31.70;46.00;;;;;;5047089;28;20175;-82
2023/05/14 09:52:23;;;;;;;;;;;31.20;46.30;;;;;;5047629;28;20199;-82
2023/05/14 09:54:58;;;;;;;;;;;30.60;46.50;;;;;;5049041;28;20017;-82
2023/05/14 09:57:25;;;;;;;;;;;30.10;46.90;;;;;;5063393;28;19943;-82
2023/05/14 09:59:52;;;;;;;;;;;29.60;47.40;;;;;;5045440;28;20262;-82
2023/05/14 10:02:25;;;;;;;;;;;29.20;47.80;;;;;;5032435;28;20016;-83
2023/05/14 10:04:57;;;;;;;;;;;28.90;48.10;;;;;;5029822;28;20012;-82
2023/05/14 10:07:33;;;;;;;;;;;28.70;48.40;;;;;;5065450;28;20144;-83
2023/05/14 10:10:02;;;;;;;;;;;28.40;48.60;;;;;;5050942;28;19909;-83
2023/05/14 10:12:31;;;;;;;;;;;28.20;48.90;;;;;;5065402;28;19975;-84
2023/05/14 10:15:07;;;;;;;;;;;28.10;49.20;;;;;;5050025;28;20086;-83
2023/05/14 10:17:35;;;;;;;;;;;27.90;49.30;;;;;;5047743;28;19908;-83
2023/05/14 10:20:04;;;;;;;;;;;27.80;49.50;;;;;;5046477;28;20234;-83
2023/05/14 10:22:32;;;;;;;;;;;27.70;49.70;;;;;;5047623;28;19938;-83
2023/05/14 10:25:05;;;;;;;;;;;27.50;49.80;;;;;;5051387;28;19909;-83
2023/05/14 10:27:32;;;;;;;;;;;27.50;50.00;;;;;;5029348;28;20004;-83
2023/05/14 10:29:58;;;;;;;;;;;27.40;50.10;;;;;;5044696;28;20009;-82
2023/05/14 10:32:25;;;;;;;;;;;27.30;50.20;;;;;;5046726;28;19921;-83
2023/05/14 10:34:54;;;;;;;;;;;27.20;50.40;;;;;;5032282;28;19914;-84
2023/05/14 10:37:42;;;;;;;;;;;27.10;50.50;;;;;;5064306;28;19983;-83
2023/05/14 10:40:08;;;;;;;;;;;27.00;50.70;;;;;;5046675;28;20059;-83
2023/05/14 10:42:36;;;;;;;;;;;26.90;50.80;;;;;;5049446;28;19923;-83
2023/05/14 10:45:10;;;;;;;;;;;26.80;51.40;;;;;;5064087;28;19909;-83
2023/05/14 10:47:46;;;;;;;;;;;26.70;51.20;;;;;;5065782;28;19963;-83
2023/05/14 10:50:12;;;;;;;;;;;26.60;51.30;;;;;;5051706;28;19912;-83
2023/05/14 10:52:42;;;;;;;;;;;26.60;51.50;;;;;;5027010;28;19948;-83
2023/05/14 10:55:13;;;;;;;;;;;26.50;51.60;;;;;;5026920;28;19913;-83
2023/05/14 10:57:39;;;;;;;;;;;26.40;51.70;;;;;;5025989;28;19913;-83
2023/05/14 11:00:06;;;;;;;;;;;26.30;51.80;;;;;;5030013;28;20315;-82
2023/05/14 11:02:33;;;;;;;;;;;26.20;51.90;;;;;;5030002;28;19909;-83
2023/05/14 11:05:02;;;;;;;;;;;26.20;52.00;;;;;;5028620;28;19975;-83
2023/05/14 11:07:32;;;;;;;;;;;26.20;52.10;;;;;;5029035;28;20058;-83
2023/05/14 11:10:04;;;;;;;;;;;26.10;52.10;;;;;;5030442;28;19909;-84
2023/05/14 11:12:30;;;;;;;;;;;26.10;52.20;;;;;;5045857;28;19909;-83
2023/05/14 11:14:56;;;;;;;;;;;26.10;52.40;;;;;;5031274;28;19919;-84
2023/05/14 11:17:22;;;;;;;;;;;26.00;52.40;;;;;;5032556;28;19909;-84
2023/05/14 11:19:48;;;;;;;;;;;25.90;52.40;;;;;;5030709;28;19909;-83
2023/05/14 11:22:13;;;;;;;;;;;25.90;52.50;;;;;;5030547;28;20153;-83
2023/05/14 11:24:39;;;;;;;;;;;25.80;52.50;;;;;;5031935;28;19917;-85
2023/05/14 11:27:07;;;;;;;;;;;25.80;52.70;;;;;;5029376;28;20403;-83
2023/05/14 11:29:33;;;;;;;;;;;25.80;52.80;;;;;;5030912;28;20329;-83
2023/05/14 11:31:59;;;;;;;;;;;25.70;52.80;;;;;;5031027;28;19920;-83
2023/05/14 11:34:24;;;;;;;;;;;25.70;52.90;;;;;;5030471;28;19921;-84
2023/05/14 11:36:50;;;;;;;;;;;25.70;52.90;;;;;;5029456;28;19917;-84
2023/05/14 11:39:19;;;;;;;;;;;25.60;53.00;;;;;;5029967;28;19978;-84
2023/05/14 11:41:45;;;;;;;;;;;25.60;53.10;;;;;;5030633;28;19945;-83
2023/05/14 11:44:10;;;;;;;;;;;25.60;53.20;;;;;;5035471;28;19917;-83
2023/05/14 11:46:36;;;;;;;;;;;25.60;53.10;;;;;;5027791;28;20011;-83
2023/05/14 11:49:05;;;;;;;;;;;25.60;53.00;;;;;;5028347;28;19909;-84
2023/05/14 11:51:31;;;;;;;;;;;25.50;53.20;;;;;;5028140;28;19910;-83
2023/05/14 11:54:00;;;;;;;;;;;25.50;53.30;;;;;;5027579;28;19952;-84
2023/05/14 11:56:26;;;;;;;;;;;25.50;53.30;;;;;;5028008;28;20087;-83
2023/05/14 11:58:55;;;;;;;;;;;25.40;53.40;;;;;;5027736;28;19984;-83
2023/05/14 12:01:21;;;;;;;;;;;25.40;53.50;;;;;;5028282;28;20132;-84
2023/05/14 12:03:47;;;;;;;;;;;25.40;53.60;;;;;;5028154;28;19913;-83
2023/05/14 12:06:12;;;;;;;;;;;25.40;53.60;;;;;;5026341;28;19920;-83
2023/05/14 12:08:38;;;;;;;;;;;25.40;53.50;;;;;;5027308;28;20283;-83
2023/05/14 12:11:04;;;;;;;;;;;25.40;53.70;;;;;;5030178;28;20235;-83
2023/05/14 12:13:30;;;;;;;;;;;25.40;53.60;;;;;;5027662;28;20169;-83
2023/05/14 12:15:57;;;;;;;;;;;25.30;53.60;;;;;;5029432;28;19913;-83
2023/05/14 12:18:32;;;;;;;;;;;25.30;53.50;;;;;;5028717;28;20033;-82
2023/05/14 12:21:02;;;;;;;;;;;25.20;53.30;;;;;;5028947;28;19909;-83
2023/05/14 12:23:28;;;;;;;;;;;25.20;53.40;;;;;;5031504;28;20314;-83
2023/05/14 12:25:54;;;;;;;;;;;25.20;53.30;;;;;;5029234;28;19909;-82
2023/05/14 12:28:19;;;;;;;;;;;25.20;53.10;;;;;;5031399;28;19909;-83
2023/05/14 12:30:46;;;;;;;;;;;25.10;53.00;;;;;;5031997;28;20287;-82
2023/05/14 12:33:12;;;;;;;;;;;25.10;53.10;;;;;;5030972;28;20136;-83
2023/05/14 12:35:38;;;;;;;;;;;25.00;53.10;;;;;;5032988;28;19913;-83
2023/05/14 12:38:03;;;;;;;;;;;25.00;53.30;;;;;;5032563;28;19928;-83
2023/05/14 12:40:29;;;;;;;;;;;25.00;53.30;;;;;;5032854;28;19944;-83
2023/05/14 12:42:55;;;;;;;;;;;25.00;53.30;;;;;;5031384;28;20479;-81
2023/05/14 12:45:20;;;;;;;;;;;25.00;53.10;;;;;;5029605;28;20175;-83
2023/05/14 12:47:46;;;;;;;;;;;25.00;53.00;;;;;;5031236;28;19959;-82
2023/05/14 12:50:12;;;;;;;;;;;25.00;52.90;;;;;;5032052;28;19909;-82
2023/05/14 12:52:37;;;;;;;;;;;25.00;52.80;;;;;;5028687;28;20187;-83
2023/05/14 12:55:03;;;;;;;;;;;25.00;52.80;;;;;;5028105;28;19913;-82
2023/05/14 12:57:29;;;;;;;;;;;25.00;52.80;;;;;;5029426;28;19909;-81
2023/05/14 12:59:55;;;;;;;;;;;24.90;52.80;;;;;;5030466;28;19956;-82
2023/05/14 13:02:21;;;;;;;;;;;24.90;52.70;;;;;;5029991;28;19974;-82
2023/05/14 13:04:46;;;;;;;;;;;24.90;52.70;;;;;;5029729;28;19917;-83
2023/05/14 13:07:12;;;;;;;;;;;24.90;52.60;;;;;;5031715;28;19951;-81
2023/05/14 13:09:39;;;;;;;;;;;24.90;52.60;;;;;;5030609;28;20203;-82
2023/05/14 13:12:05;;;;;;;;;;;25.00;52.40;;;;;;5031595;28;20279;-82
2023/05/14 13:14:31;;;;;;;;;;;25.00;52.20;;;;;;5030934;28;19913;-83
2023/05/14 13:16:56;;;;;;;;;;;25.00;52.20;;;;;;5030519;28;19913;-83
2023/05/14 13:19:22;;;;;;;;;;;25.00;51.90;;;;;;5027897;28;20119;-83
2023/05/14 13:21:48;;;;;;;;;;;25.00;52.10;;;;;;5031945;28;19917;-83
2023/05/14 13:24:14;;;;;;;;;;;24.90;51.90;;;;;;5031683;28;19949;-83
2023/05/14 13:26:39;;;;;;;;;;;24.90;51.30;;;;;;5030168;28;20433;-83
2023/05/14 13:29:05;;;;;;;;;;;24.90;51.80;;;;;;5031254;28;19909;-83
2023/05/14 13:31:31;;;;;;;;;;;24.90;51.70;;;;;;5030394;28;19924;-82
2023/05/14 13:33:58;;;;;;;;;;;24.90;51.90;;;;;;5029698;28;20262;-82
2023/05/14 13:36:24;;;;;;;;;;;24.80;51.90;;;;;;5028115;28;19952;-82
2023/05/14 13:38:49;;;;;;;;;;;24.80;51.90;;;;;;5028162;28;20001;-84
2023/05/14 13:41:15;;;;;;;;;;;24.80;51.80;;;;;;5027429;28;20295;-83
2023/05/14 13:43:40;;;;;;;;;;;24.80;51.90;;;;;;5026547;28;20160;-82
2023/05/14 13:46:06;;;;;;;;;;;24.80;52.00;;;;;;5024946;28;20088;-82
2023/05/14 13:48:32;;;;;;;;;;;24.80;52.30;;;;;;5028589;28;20199;-82
2023/05/14 13:50:58;;;;;;;;;;;24.80;52.10;;;;;;5029449;28;19999;-82
2023/05/14 13:53:24;;;;;;;;;;;24.80;52.30;;;;;;5027995;28;20124;-83
2023/05/14 13:55:55;;;;;;;;;;;24.80;52.30;;;;;;5027169;28;19987;-83
2023/05/14 13:58:22;;;;;;;;;;;24.80;52.30;;;;;;5025673;28;19972;-83
2023/05/14 14:00:47;;;;;;;;;;;24.80;52.40;;;;;;5025668;28;20000;-82
2023/05/14 14:03:13;;;;;;;;;;;24.80;52.00;;;;;;5043385;28;20008;-82
2023/05/14 14:05:38;;;;;;;;;;;24.80;52.00;;;;;;5027965;28;19909;-82
2023/05/14 14:08:04;;;;;;;;;;;24.80;51.90;;;;;;5025602;28;19960;-83
2023/05/14 14:10:30;;;;;;;;;;;24.70;52.00;;;;;;5028093;28;19912;-82
2023/05/14 14:12:56;;;;;;;;;;;24.70;52.10;;;;;;5030387;28;20140;-83
2023/05/14 14:15:22;;;;;;;;;;;24.80;52.10;;;;;;5028523;28;20232;-83